sensor_id;sensor_type;location;lat;lon;timestamp;pressure;altitude;pressure_sealevel;temperature
54746;BMP180;40640;48.130;11.356;2023-04-09T00:03:19;96158.00;;;7.30
54746;BMP180;40640;48.130;11.356;2023-04-09T00:07:23;96152.00;;;7.40
54746;BMP180;40640;48.130;11.356;2023-04-09T00:11:26;96165.00;;;7.30
54746;BMP180;40640;48.130;11.356;2023-04-09T00:15:30;96148.00;;;7.30
54746;BMP180;40640;48.130;11.356;2023-04-09T00:19:33;96149.00;;;7.30
54746;BMP180;40640;48.130;11.356;2023-04-09T00:23:36;96150.00;;;7.20
54746;BMP180;40640;48.130;11.356;2023-04-09T00:27:39;96149.00;;;7.30
54746;BMP180;40640;48.130;11.356;2023-04-09T00:31:44;96154.00;;;7.30
54746;BMP180;40640;48.130;11.356;2023-04-09T00:35:47;96159.00;;;7.30
54746;BMP180;40640;48.130;11.356;2023-04-09T00:39:50;96145.00;;;7.30
54746;BMP180;40640;48.130;11.356;2023-04-09T00:43:54;96149.00;;;7.20
54746;BMP180;40640;48.130;11.356;2023-04-09T00:47:59;96152.00;;;7.20
54746;BMP180;40640;48.130;11.356;2023-04-09T00:52:03;96151.00;;;7.20
54746;BMP180;40640;48.130;11.356;2023-04-09T00:56:06;96142.00;;;7.20
54746;BMP180;40640;48.130;11.356;2023-04-09T01:00:10;96151.00;;;7.20
54746;BMP180;40640;48.130;11.356;2023-04-09T01:04:15;96142.00;;;7.20
54746;BMP180;40640;48.130;11.356;2023-04-09T01:08:26;96137.00;;;7.10
54746;BMP180;40640;48.130;11.356;2023-04-09T01:12:37;96143.00;;;7.10
54746;BMP180;40640;48.130;11.356;2023-04-09T01:16:43;96148.00;;;7.20
54746;BMP180;40640;48.130;11.356;2023-04-09T01:20:56;96140.00;;;7.00
54746;BMP180;40640;48.130;11.356;2023-04-09T01:25:05;96138.00;;;7.00
54746;BMP180;40640;48.130;11.356;2023-04-09T01:29:19;96133.00;;;7.00
54746;BMP180;40640;48.130;11.356;2023-04-09T01:33:23;96134.00;;;6.90
54746;BMP180;40640;48.130;11.356;2023-04-09T01:37:27;96136.00;;;7.00
54746;BMP180;40640;48.130;11.356;2023-04-09T01:41:31;96130.00;;;7.00
54746;BMP180;40640;48.130;11.356;2023-04-09T01:45:37;96136.00;;;6.90
54746;BMP180;40640;48.130;11.356;2023-04-09T01:49:40;96140.00;;;6.90
54746;BMP180;40640;48.130;11.356;2023-04-09T01:53:45;96138.00;;;6.80
54746;BMP180;40640;48.130;11.356;2023-04-09T01:57:47;96141.00;;;6.80
54746;BMP180;40640;48.130;11.356;2023-04-09T02:01:54;96135.00;;;6.80
54746;BMP180;40640;48.130;11.356;2023-04-09T02:06:06;96133.00;;;6.80
54746;BMP180;40640;48.130;11.356;2023-04-09T02:10:09;96141.00;;;6.80
54746;BMP180;40640;48.130;11.356;2023-04-09T02:14:14;96139.00;;;6.70
54746;BMP180;40640;48.130;11.356;2023-04-09T02:18:23;96138.00;;;6.60
54746;BMP180;40640;48.130;11.356;2023-04-09T02:22:27;96134.00;;;6.60
54746;BMP180;40640;48.130;11.356;2023-04-09T02:26:31;96136.00;;;6.60
54746;BMP180;40640;48.130;11.356;2023-04-09T02:30:34;96130.00;;;6.70
54746;BMP180;40640;48.130;11.356;2023-04-09T02:34:38;96136.00;;;6.70
54746;BMP180;40640;48.130;11.356;2023-04-09T02:38:41;96123.00;;;6.70
54746;BMP180;40640;48.130;11.356;2023-04-09T02:42:44;96127.00;;;6.70
54746;BMP180;40640;48.130;11.356;2023-04-09T02:46:47;96132.00;;;6.70
54746;BMP180;40640;48.130;11.356;2023-04-09T02:50:51;96118.00;;;6.60
54746;BMP180;40640;48.130;11.356;2023-04-09T02:54:54;96115.00;;;6.60
54746;BMP180;40640;48.130;11.356;2023-04-09T02:58:57;96111.00;;;6.60
54746;BMP180;40640;48.130;11.356;2023-04-09T03:03:00;96114.00;;;6.60
54746;BMP180;40640;48.130;11.356;2023-04-09T03:07:05;96111.00;;;6.60
54746;BMP180;40640;48.130;11.356;2023-04-09T03:11:08;96112.00;;;6.50
54746;BMP180;40640;48.130;11.356;2023-04-09T03:15:11;96110.00;;;6.30
54746;BMP180;40640;48.130;11.356;2023-04-09T03:19:14;96108.00;;;6.30
54746;BMP180;40640;48.130;11.356;2023-04-09T03:23:19;96110.00;;;6.30
54746;BMP180;40640;48.130;11.356;2023-04-09T03:27:22;96110.00;;;6.30
54746;BMP180;40640;48.130;11.356;2023-04-09T03:31:30;96108.00;;;6.20
54746;BMP180;40640;48.130;11.356;2023-04-09T03:35:33;96101.00;;;6.10
54746;BMP180;40640;48.130;11.356;2023-04-09T03:39:38;96099.00;;;6.00
54746;BMP180;40640;48.130;11.356;2023-04-09T03:43:41;96110.00;;;6.10
54746;BMP180;40640;48.130;11.356;2023-04-09T03:47:47;96108.00;;;6.00
54746;BMP180;40640;48.130;11.356;2023-04-09T03:51:52;96099.00;;;6.00
54746;BMP180;40640;48.130;11.356;2023-04-09T03:55:58;96102.00;;;6.00
54746;BMP180;40640;48.130;11.356;2023-04-09T04:00:03;96107.00;;;6.00
54746;BMP180;40640;48.130;11.356;2023-04-09T04:04:23;96103.00;;;6.10
54746;BMP180;40640;48.130;11.356;2023-04-09T04:08:31;96112.00;;;6.30
54746;BMP180;40640;48.130;11.356;2023-04-09T04:12:35;96107.00;;;5.90
54746;BMP180;40640;48.130;11.356;2023-04-09T04:16:45;96130.00;;;5.80
54746;BMP180;40640;48.130;11.356;2023-04-09T04:20:52;96138.00;;;5.70
54746;BMP180;40640;48.130;11.356;2023-04-09T04:24:55;96128.00;;;5.70
54746;BMP180;40640;48.130;11.356;2023-04-09T04:29:00;96142.00;;;5.50
54746;BMP180;40640;48.130;11.356;2023-04-09T04:33:22;96142.00;;;5.30
54746;BMP180;40640;48.130;11.356;2023-04-09T04:37:28;96141.00;;;5.30
54746;BMP180;40640;48.130;11.356;2023-04-09T04:41:33;96135.00;;;5.20
54746;BMP180;40640;48.130;11.356;2023-04-09T04:45:44;96142.00;;;5.10
54746;BMP180;40640;48.130;11.356;2023-04-09T04:49:47;96128.00;;;5.00
54746;BMP180;40640;48.130;11.356;2023-04-09T04:53:51;96134.00;;;5.10
54746;BMP180;40640;48.130;11.356;2023-04-09T04:57:53;96135.00;;;5.10
54746;BMP180;40640;48.130;11.356;2023-04-09T05:02:01;96128.00;;;5.20
54746;BMP180;40640;48.130;11.356;2023-04-09T05:06:11;96135.00;;;5.10
54746;BMP180;40640;48.130;11.356;2023-04-09T05:10:17;96122.00;;;5.20
54746;BMP180;40640;48.130;11.356;2023-04-09T05:14:21;96129.00;;;5.20
54746;BMP180;40640;48.130;11.356;2023-04-09T05:18:26;96125.00;;;5.40
54746;BMP180;40640;48.130;11.356;2023-04-09T05:22:29;96137.00;;;5.50
54746;BMP180;40640;48.130;11.356;2023-04-09T05:26:32;96130.00;;;5.70
54746;BMP180;40640;48.130;11.356;2023-04-09T05:30:36;96147.00;;;5.90
54746;BMP180;40640;48.130;11.356;2023-04-09T05:34:42;96141.00;;;6.00
54746;BMP180;40640;48.130;11.356;2023-04-09T05:38:46;96165.00;;;5.90
54746;BMP180;40640;48.130;11.356;2023-04-09T05:42:49;96171.00;;;5.80
54746;BMP180;40640;48.130;11.356;2023-04-09T05:47:00;96171.00;;;5.80
54746;BMP180;40640;48.130;11.356;2023-04-09T05:51:12;96155.00;;;5.70
54746;BMP180;40640;48.130;11.356;2023-04-09T05:55:16;96178.00;;;6.00
54746;BMP180;40640;48.130;11.356;2023-04-09T05:59:27;96179.00;;;8.30
54746;BMP180;40640;48.130;11.356;2023-04-09T06:03:30;96184.00;;;9.60
54746;BMP180;40640;48.130;11.356;2023-04-09T06:07:36;96190.00;;;11.30
54746;BMP180;40640;48.130;11.356;2023-04-09T06:11:39;96192.00;;;12.70
54746;BMP180;40640;48.130;11.356;2023-04-09T06:15:42;96198.00;;;13.30
54746;BMP180;40640;48.130;11.356;2023-04-09T06:19:46;96198.00;;;13.20
54746;BMP180;40640;48.130;11.356;2023-04-09T06:23:50;96187.00;;;13.50
54746;BMP180;40640;48.130;11.356;2023-04-09T06:27:54;96199.00;;;14.30
54746;BMP180;40640;48.130;11.356;2023-04-09T06:31:57;96204.00;;;14.90
54746;BMP180;40640;48.130;11.356;2023-04-09T06:36:00;96202.00;;;14.30
54746;BMP180;40640;48.130;11.356;2023-04-09T06:40:06;96208.00;;;15.10
54746;BMP180;40640;48.130;11.356;2023-04-09T06:44:09;96215.00;;;16.80
54746;BMP180;40640;48.130;11.356;2023-04-09T06:48:12;96223.00;;;17.40
54746;BMP180;40640;48.130;11.356;2023-04-09T06:52:15;96234.00;;;18.70
54746;BMP180;40640;48.130;11.356;2023-04-09T06:56:19;96228.00;;;18.40
54746;BMP180;40640;48.130;11.356;2023-04-09T07:00:22;96233.00;;;18.50
54746;BMP180;40640;48.130;11.356;2023-04-09T07:04:25;96243.00;;;19.70
54746;BMP180;40640;48.130;11.356;2023-04-09T07:08:28;96246.00;;;20.70
54746;BMP180;40640;48.130;11.356;2023-04-09T07:12:33;96243.00;;;20.80
54746;BMP180;40640;48.130;11.356;2023-04-09T07:16:36;96244.00;;;22.00
54746;BMP180;40640;48.130;11.356;2023-04-09T07:20:39;96245.00;;;22.40
54746;BMP180;40640;48.130;11.356;2023-04-09T07:24:42;96249.00;;;20.80
54746;BMP180;40640;48.130;11.356;2023-04-09T07:28:46;96249.00;;;22.60
54746;BMP180;40640;48.130;11.356;2023-04-09T07:32:49;96261.00;;;22.90
54746;BMP180;40640;48.130;11.356;2023-04-09T07:36:52;96256.00;;;21.70
54746;BMP180;40640;48.130;11.356;2023-04-09T07:40:56;96266.00;;;20.90
54746;BMP180;40640;48.130;11.356;2023-04-09T07:45:00;96262.00;;;19.30
54746;BMP180;40640;48.130;11.356;2023-04-09T07:49:04;96261.00;;;18.10
54746;BMP180;40640;48.130;11.356;2023-04-09T07:53:07;96258.00;;;18.60
54746;BMP180;40640;48.130;11.356;2023-04-09T07:57:10;96262.00;;;22.50
54746;BMP180;40640;48.130;11.356;2023-04-09T08:01:14;96261.00;;;24.10
54746;BMP180;40640;48.130;11.356;2023-04-09T08:05:17;96260.00;;;24.10
54746;BMP180;40640;48.130;11.356;2023-04-09T08:09:20;96261.00;;;25.70
54746;BMP180;40640;48.130;11.356;2023-04-09T08:13:23;96265.00;;;25.70
54746;BMP180;40640;48.130;11.356;2023-04-09T08:17:27;96259.00;;;25.70
54746;BMP180;40640;48.130;11.356;2023-04-09T08:21:30;96266.00;;;28.00
54746;BMP180;40640;48.130;11.356;2023-04-09T08:25:33;96282.00;;;28.40
54746;BMP180;40640;48.130;11.356;2023-04-09T08:29:37;96278.00;;;28.90
54746;BMP180;40640;48.130;11.356;2023-04-09T08:33:42;96279.00;;;28.80
54746;BMP180;40640;48.130;11.356;2023-04-09T08:37:45;96283.00;;;29.90
54746;BMP180;40640;48.130;11.356;2023-04-09T08:41:50;96295.00;;;30.90
54746;BMP180;40640;48.130;11.356;2023-04-09T08:45:53;96305.00;;;26.70
54746;BMP180;40640;48.130;11.356;2023-04-09T08:49:59;96307.00;;;27.40
54746;BMP180;40640;48.130;11.356;2023-04-09T08:54:02;96300.00;;;29.50
54746;BMP180;40640;48.130;11.356;2023-04-09T08:58:06;96303.00;;;27.80
54746;BMP180;40640;48.130;11.356;2023-04-09T09:02:10;96312.00;;;25.90
54746;BMP180;40640;48.130;11.356;2023-04-09T09:06:21;96311.00;;;23.20
54746;BMP180;40640;48.130;11.356;2023-04-09T09:10:36;96301.00;;;25.80
54746;BMP180;40640;48.130;11.356;2023-04-09T09:14:39;96298.00;;;28.10
54746;BMP180;40640;48.130;11.356;2023-04-09T09:18:42;96298.00;;;29.30
54746;BMP180;40640;48.130;11.356;2023-04-09T09:22:51;96303.00;;;31.80
54746;BMP180;40640;48.130;11.356;2023-04-09T09:26:56;96313.00;;;26.70
54746;BMP180;40640;48.130;11.356;2023-04-09T09:31:06;96318.00;;;23.00
54746;BMP180;40640;48.130;11.356;2023-04-09T09:35:09;96312.00;;;21.70
54746;BMP180;40640;48.130;11.356;2023-04-09T09:39:14;96311.00;;;22.20
54746;BMP180;40640;48.130;11.356;2023-04-09T09:43:18;96298.00;;;20.30
54746;BMP180;40640;48.130;11.356;2023-04-09T09:47:22;96307.00;;;18.10
54746;BMP180;40640;48.130;11.356;2023-04-09T09:51:26;96304.00;;;17.00
54746;BMP180;40640;48.130;11.356;2023-04-09T09:55:32;96308.00;;;16.10
54746;BMP180;40640;48.130;11.356;2023-04-09T09:59:37;96303.00;;;16.90
54746;BMP180;40640;48.130;11.356;2023-04-09T10:03:42;96302.00;;;17.00
54746;BMP180;40640;48.130;11.356;2023-04-09T10:07:46;96304.00;;;17.00
54746;BMP180;40640;48.130;11.356;2023-04-09T10:11:51;96294.00;;;16.10
54746;BMP180;40640;48.130;11.356;2023-04-09T10:15:56;96302.00;;;16.00
54746;BMP180;40640;48.130;11.356;2023-04-09T10:20:06;96300.00;;;15.50
54746;BMP180;40640;48.130;11.356;2023-04-09T10:24:12;96301.00;;;15.50
54746;BMP180;40640;48.130;11.356;2023-04-09T10:28:17;96299.00;;;15.90
54746;BMP180;40640;48.130;11.356;2023-04-09T10:32:22;96304.00;;;17.00
54746;BMP180;40640;48.130;11.356;2023-04-09T10:36:27;96299.00;;;18.40
54746;BMP180;40640;48.130;11.356;2023-04-09T10:40:32;96300.00;;;19.10
54746;BMP180;40640;48.130;11.356;2023-04-09T10:44:38;96302.00;;;18.40
54746;BMP180;40640;48.130;11.356;2023-04-09T10:48:41;96301.00;;;19.10
54746;BMP180;40640;48.130;11.356;2023-04-09T10:52:45;96306.00;;;19.30
54746;BMP180;40640;48.130;11.356;2023-04-09T10:57:08;96303.00;;;19.20
54746;BMP180;40640;48.130;11.356;2023-04-09T11:01:20;96305.00;;;18.70
54746;BMP180;40640;48.130;11.356;2023-04-09T11:05:33;96296.00;;;17.50
54746;BMP180;40640;48.130;11.356;2023-04-09T11:09:36;96291.00;;;17.50
54746;BMP180;40640;48.130;11.356;2023-04-09T11:13:39;96287.00;;;17.10
54746;BMP180;40640;48.130;11.356;2023-04-09T11:17:45;96296.00;;;17.90
54746;BMP180;40640;48.130;11.356;2023-04-09T11:21:48;96291.00;;;17.70
54746;BMP180;40640;48.130;11.356;2023-04-09T11:25:52;96292.00;;;16.90
54746;BMP180;40640;48.130;11.356;2023-04-09T11:29:55;96288.00;;;17.40
54746;BMP180;40640;48.130;11.356;2023-04-09T11:34:00;96294.00;;;18.70
54746;BMP180;40640;48.130;11.356;2023-04-09T11:38:06;96292.00;;;22.00
54746;BMP180;40640;48.130;11.356;2023-04-09T11:42:12;96296.00;;;24.90
54746;BMP180;40640;48.130;11.356;2023-04-09T11:46:15;96290.00;;;22.80
54746;BMP180;40640;48.130;11.356;2023-04-09T11:50:20;96300.00;;;21.70
54746;BMP180;40640;48.130;11.356;2023-04-09T11:54:23;96299.00;;;18.50
54746;BMP180;40640;48.130;11.356;2023-04-09T11:58:27;96302.00;;;17.80
54746;BMP180;40640;48.130;11.356;2023-04-09T12:02:30;96300.00;;;17.20
54746;BMP180;40640;48.130;11.356;2023-04-09T12:06:39;96310.00;;;16.20
54746;BMP180;40640;48.130;11.356;2023-04-09T12:10:42;96297.00;;;16.00
54746;BMP180;40640;48.130;11.356;2023-04-09T12:14:45;96302.00;;;15.90
54746;BMP180;40640;48.130;11.356;2023-04-09T12:18:49;96303.00;;;16.00
54746;BMP180;40640;48.130;11.356;2023-04-09T12:22:58;96302.00;;;16.40
54746;BMP180;40640;48.130;11.356;2023-04-09T12:27:01;96294.00;;;16.90
54746;BMP180;40640;48.130;11.356;2023-04-09T12:31:08;96297.00;;;17.10
54746;BMP180;40640;48.130;11.356;2023-04-09T12:35:12;96299.00;;;17.60
54746;BMP180;40640;48.130;11.356;2023-04-09T12:39:16;96296.00;;;19.30
54746;BMP180;40640;48.130;11.356;2023-04-09T12:43:21;96291.00;;;19.70
54746;BMP180;40640;48.130;11.356;2023-04-09T12:47:24;96292.00;;;19.00
54746;BMP180;40640;48.130;11.356;2023-04-09T12:51:28;96295.00;;;21.30
54746;BMP180;40640;48.130;11.356;2023-04-09T12:55:32;96293.00;;;23.70
54746;BMP180;40640;48.130;11.356;2023-04-09T12:59:35;96285.00;;;23.00
54746;BMP180;40640;48.130;11.356;2023-04-09T13:03:38;96273.00;;;22.60
54746;BMP180;40640;48.130;11.356;2023-04-09T13:07:42;96286.00;;;22.50
54746;BMP180;40640;48.130;11.356;2023-04-09T13:11:46;96284.00;;;23.30
54746;BMP180;40640;48.130;11.356;2023-04-09T13:15:49;96286.00;;;23.40
54746;BMP180;40640;48.130;11.356;2023-04-09T13:19:52;96285.00;;;24.20
54746;BMP180;40640;48.130;11.356;2023-04-09T13:23:55;96291.00;;;23.80
54746;BMP180;40640;48.130;11.356;2023-04-09T13:27:59;96283.00;;;22.30
54746;BMP180;40640;48.130;11.356;2023-04-09T13:32:02;96291.00;;;21.10
54746;BMP180;40640;48.130;11.356;2023-04-09T13:36:07;96287.00;;;20.00
54746;BMP180;40640;48.130;11.356;2023-04-09T13:40:11;96276.00;;;19.90
54746;BMP180;40640;48.130;11.356;2023-04-09T13:44:15;96278.00;;;18.00
54746;BMP180;40640;48.130;11.356;2023-04-09T13:48:19;96272.00;;;16.00
54746;BMP180;40640;48.130;11.356;2023-04-09T13:52:22;96274.00;;;15.30
54746;BMP180;40640;48.130;11.356;2023-04-09T13:56:30;96287.00;;;14.70
54746;BMP180;40640;48.130;11.356;2023-04-09T14:00:34;96282.00;;;14.10
54746;BMP180;40640;48.130;11.356;2023-04-09T14:04:37;96275.00;;;13.80
54746;BMP180;40640;48.130;11.356;2023-04-09T14:08:40;96265.00;;;13.50
54746;BMP180;40640;48.130;11.356;2023-04-09T14:12:43;96262.00;;;13.50
54746;BMP180;40640;48.130;11.356;2023-04-09T14:16:48;96259.00;;;13.80
54746;BMP180;40640;48.130;11.356;2023-04-09T14:20:50;96252.00;;;14.30
54746;BMP180;40640;48.130;11.356;2023-04-09T14:24:54;96263.00;;;14.20
54746;BMP180;40640;48.130;11.356;2023-04-09T14:28:57;96259.00;;;14.80
54746;BMP180;40640;48.130;11.356;2023-04-09T14:33:02;96264.00;;;14.70
54746;BMP180;40640;48.130;11.356;2023-04-09T14:37:05;96253.00;;;13.80
54746;BMP180;40640;48.130;11.356;2023-04-09T14:41:08;96250.00;;;14.20
54746;BMP180;40640;48.130;11.356;2023-04-09T14:45:11;96248.00;;;15.20
54746;BMP180;40640;48.130;11.356;2023-04-09T14:49:15;96254.00;;;14.90
54746;BMP180;40640;48.130;11.356;2023-04-09T14:53:17;96245.00;;;14.20
54746;BMP180;40640;48.130;11.356;2023-04-09T14:57:20;96247.00;;;15.10
54746;BMP180;40640;48.130;11.356;2023-04-09T15:01:24;96251.00;;;15.00
54746;BMP180;40640;48.130;11.356;2023-04-09T15:05:29;96251.00;;;14.00
54746;BMP180;40640;48.130;11.356;2023-04-09T15:09:32;96241.00;;;13.60
54746;BMP180;40640;48.130;11.356;2023-04-09T15:13:35;96247.00;;;13.30
54746;BMP180;40640;48.130;11.356;2023-04-09T15:17:38;96233.00;;;12.50
54746;BMP180;40640;48.130;11.356;2023-04-09T15:21:42;96233.00;;;12.50
54746;BMP180;40640;48.130;11.356;2023-04-09T15:25:45;96239.00;;;12.40
54746;BMP180;40640;48.130;11.356;2023-04-09T15:29:48;96230.00;;;12.90
54746;BMP180;40640;48.130;11.356;2023-04-09T15:33:50;96233.00;;;13.10
54746;BMP180;40640;48.130;11.356;2023-04-09T15:37:55;96235.00;;;13.00
54746;BMP180;40640;48.130;11.356;2023-04-09T15:41:58;96222.00;;;12.90
54746;BMP180;40640;48.130;11.356;2023-04-09T15:46:06;96227.00;;;13.20
54746;BMP180;40640;48.130;11.356;2023-04-09T15:50:10;96223.00;;;13.30
54746;BMP180;40640;48.130;11.356;2023-04-09T15:54:14;96231.00;;;12.90
54746;BMP180;40640;48.130;11.356;2023-04-09T15:58:17;96230.00;;;12.40
54746;BMP180;40640;48.130;11.356;2023-04-09T16:02:20;96228.00;;;12.30
54746;BMP180;40640;48.130;11.356;2023-04-09T16:06:26;96231.00;;;12.30
54746;BMP180;40640;48.130;11.356;2023-04-09T16:10:31;96229.00;;;12.50
54746;BMP180;40640;48.130;11.356;2023-04-09T16:14:34;96231.00;;;12.10
54746;BMP180;40640;48.130;11.356;2023-04-09T16:18:37;96238.00;;;12.20
54746;BMP180;40640;48.130;11.356;2023-04-09T16:22:40;96223.00;;;12.30
54746;BMP180;40640;48.130;11.356;2023-04-09T16:26:44;96227.00;;;12.20
54746;BMP180;40640;48.130;11.356;2023-04-09T16:30:48;96229.00;;;12.10
54746;BMP180;40640;48.130;11.356;2023-04-09T16:34:51;96231.00;;;12.00
54746;BMP180;40640;48.130;11.356;2023-04-09T16:38:54;96227.00;;;11.80
54746;BMP180;40640;48.130;11.356;2023-04-09T16:42:59;96223.00;;;11.90
54746;BMP180;40640;48.130;11.356;2023-04-09T16:47:03;96228.00;;;11.60
54746;BMP180;40640;48.130;11.356;2023-04-09T16:51:07;96214.00;;;11.70
54746;BMP180;40640;48.130;11.356;2023-04-09T16:55:09;96218.00;;;11.90
54746;BMP180;40640;48.130;11.356;2023-04-09T16:59:14;96219.00;;;12.20
54746;BMP180;40640;48.130;11.356;2023-04-09T17:03:18;96222.00;;;12.20
54746;BMP180;40640;48.130;11.356;2023-04-09T17:07:21;96232.00;;;12.30
54746;BMP180;40640;48.130;11.356;2023-04-09T17:11:23;96219.00;;;11.90
54746;BMP180;40640;48.130;11.356;2023-04-09T17:15:28;96222.00;;;11.60
54746;BMP180;40640;48.130;11.356;2023-04-09T17:19:31;96221.00;;;11.40
54746;BMP180;40640;48.130;11.356;2023-04-09T17:23:35;96222.00;;;11.20
54746;BMP180;40640;48.130;11.356;2023-04-09T17:27:38;96228.00;;;11.10
54746;BMP180;40640;48.130;11.356;2023-04-09T17:31:43;96232.00;;;11.10
54746;BMP180;40640;48.130;11.356;2023-04-09T17:35:46;96234.00;;;11.10
54746;BMP180;40640;48.130;11.356;2023-04-09T17:39:49;96242.00;;;11.20
54746;BMP180;40640;48.130;11.356;2023-04-09T17:43:52;96236.00;;;11.00
54746;BMP180;40640;48.130;11.356;2023-04-09T17:47:56;96242.00;;;11.00
54746;BMP180;40640;48.130;11.356;2023-04-09T17:52:00;96233.00;;;10.80
54746;BMP180;40640;48.130;11.356;2023-04-09T17:56:03;96232.00;;;10.90
54746;BMP180;40640;48.130;11.356;2023-04-09T18:00:07;96234.00;;;10.50
54746;BMP180;40640;48.130;11.356;2023-04-09T18:04:20;96248.00;;;10.60
54746;BMP180;40640;48.130;11.356;2023-04-09T18:08:24;96245.00;;;10.60
54746;BMP180;40640;48.130;11.356;2023-04-09T18:12:27;96250.00;;;10.60
54746;BMP180;40640;48.130;11.356;2023-04-09T18:16:30;96247.00;;;10.30
54746;BMP180;40640;48.130;11.356;2023-04-09T18:20:34;96248.00;;;10.20
54746;BMP180;40640;48.130;11.356;2023-04-09T18:24:37;96250.00;;;10.30
54746;BMP180;40640;48.130;11.356;2023-04-09T18:28:40;96249.00;;;10.30
54746;BMP180;40640;48.130;11.356;2023-04-09T18:32:43;96253.00;;;10.10
54746;BMP180;40640;48.130;11.356;2023-04-09T18:36:47;96252.00;;;10.20
54746;BMP180;40640;48.130;11.356;2023-04-09T18:40:50;96263.00;;;10.30
54746;BMP180;40640;48.130;11.356;2023-04-09T18:44:53;96273.00;;;10.20
54746;BMP180;40640;48.130;11.356;2023-04-09T18:48:56;96274.00;;;10.30
54746;BMP180;40640;48.130;11.356;2023-04-09T18:53:01;96275.00;;;10.40
54746;BMP180;40640;48.130;11.356;2023-04-09T18:57:06;96287.00;;;10.30
54746;BMP180;40640;48.130;11.356;2023-04-09T19:01:09;96290.00;;;10.00
54746;BMP180;40640;48.130;11.356;2023-04-09T19:05:13;96286.00;;;10.00
54746;BMP180;40640;48.130;11.356;2023-04-09T19:09:17;96294.00;;;10.00
54746;BMP180;40640;48.130;11.356;2023-04-09T19:13:20;96297.00;;;10.00
54746;BMP180;40640;48.130;11.356;2023-04-09T19:17:22;96301.00;;;9.80
54746;BMP180;40640;48.130;11.356;2023-04-09T19:21:25;96295.00;;;9.60
54746;BMP180;40640;48.130;11.356;2023-04-09T19:25:30;96294.00;;;9.70
54746;BMP180;40640;48.130;11.356;2023-04-09T19:29:34;96296.00;;;9.70
54746;BMP180;40640;48.130;11.356;2023-04-09T19:33:37;96304.00;;;9.60
54746;BMP180;40640;48.130;11.356;2023-04-09T19:37:40;96302.00;;;9.60
54746;BMP180;40640;48.130;11.356;2023-04-09T19:41:44;96301.00;;;9.60
54746;BMP180;40640;48.130;11.356;2023-04-09T19:45:47;96300.00;;;9.60
54746;BMP180;40640;48.130;11.356;2023-04-09T19:49:50;96304.00;;;9.40
54746;BMP180;40640;48.130;11.356;2023-04-09T19:53:53;96301.00;;;9.40
54746;BMP180;40640;48.130;11.356;2023-04-09T19:57:57;96295.00;;;9.30
54746;BMP180;40640;48.130;11.356;2023-04-09T20:02:00;96293.00;;;9.30
54746;BMP180;40640;48.130;11.356;2023-04-09T20:06:05;96294.00;;;9.10
54746;BMP180;40640;48.130;11.356;2023-04-09T20:10:09;96295.00;;;9.10
54746;BMP180;40640;48.130;11.356;2023-04-09T20:14:13;96297.00;;;9.00
54746;BMP180;40640;48.130;11.356;2023-04-09T20:18:16;96290.00;;;9.00
54746;BMP180;40640;48.130;11.356;2023-04-09T20:22:19;96286.00;;;8.90
54746;BMP180;40640;48.130;11.356;2023-04-09T20:26:22;96291.00;;;8.80
54746;BMP180;40640;48.130;11.356;2023-04-09T20:30:26;96286.00;;;8.70
54746;BMP180;40640;48.130;11.356;2023-04-09T20:34:29;96293.00;;;8.80
54746;BMP180;40640;48.130;11.356;2023-04-09T20:38:33;96285.00;;;8.70
54746;BMP180;40640;48.130;11.356;2023-04-09T20:42:37;96283.00;;;8.70
54746;BMP180;40640;48.130;11.356;2023-04-09T20:46:41;96281.00;;;8.60
54746;BMP180;40640;48.130;11.356;2023-04-09T20:50:44;96281.00;;;8.50
54746;BMP180;40640;48.130;11.356;2023-04-09T20:54:47;96292.00;;;8.50
54746;BMP180;40640;48.130;11.356;2023-04-09T20:58:50;96291.00;;;8.40
54746;BMP180;40640;48.130;11.356;2023-04-09T21:02:54;96302.00;;;8.40
54746;BMP180;40640;48.130;11.356;2023-04-09T21:06:57;96292.00;;;8.30
54746;BMP180;40640;48.130;11.356;2023-04-09T21:11:00;96279.00;;;7.80
54746;BMP180;40640;48.130;11.356;2023-04-09T21:15:04;96282.00;;;7.60
54746;BMP180;40640;48.130;11.356;2023-04-09T21:19:08;96284.00;;;7.50
54746;BMP180;40640;48.130;11.356;2023-04-09T21:23:11;96288.00;;;7.50
54746;BMP180;40640;48.130;11.356;2023-04-09T21:27:14;96288.00;;;7.60
54746;BMP180;40640;48.130;11.356;2023-04-09T21:31:17;96285.00;;;7.50
54746;BMP180;40640;48.130;11.356;2023-04-09T21:35:22;96287.00;;;7.60
54746;BMP180;40640;48.130;11.356;2023-04-09T21:39:25;96290.00;;;7.50
54746;BMP180;40640;48.130;11.356;2023-04-09T21:43:28;96287.00;;;7.40
54746;BMP180;40640;48.130;11.356;2023-04-09T21:47:31;96281.00;;;7.40
54746;BMP180;40640;48.130;11.356;2023-04-09T21:51:35;96288.00;;;7.40
54746;BMP180;40640;48.130;11.356;2023-04-09T21:55:38;96282.00;;;7.30
54746;BMP180;40640;48.130;11.356;2023-04-09T21:59:41;96290.00;;;7.30
54746;BMP180;40640;48.130;11.356;2023-04-09T22:03:48;96285.00;;;7.30
54746;BMP180;40640;48.130;11.356;2023-04-09T22:07:53;96283.00;;;7.20
54746;BMP180;40640;48.130;11.356;2023-04-09T22:11:57;96297.00;;;7.20
54746;BMP180;40640;48.130;11.356;2023-04-09T22:16:00;96297.00;;;7.20
54746;BMP180;40640;48.130;11.356;2023-04-09T22:20:03;96299.00;;;7.20
54746;BMP180;40640;48.130;11.356;2023-04-09T22:24:07;96289.00;;;7.10
54746;BMP180;40640;48.130;11.356;2023-04-09T22:28:10;96287.00;;;7.00
54746;BMP180;40640;48.130;11.356;2023-04-09T22:32:13;96298.00;;;6.90
54746;BMP180;40640;48.130;11.356;2023-04-09T22:36:16;96292.00;;;7.00
54746;BMP180;40640;48.130;11.356;2023-04-09T22:40:20;96297.00;;;7.00
54746;BMP180;40640;48.130;11.356;2023-04-09T22:44:23;96294.00;;;6.90
54746;BMP180;40640;48.130;11.356;2023-04-09T22:48:26;96287.00;;;6.90
54746;BMP180;40640;48.130;11.356;2023-04-09T22:52:30;96280.00;;;6.90
54746;BMP180;40640;48.130;11.356;2023-04-09T22:56:35;96289.00;;;6.90
54746;BMP180;40640;48.130;11.356;2023-04-09T23:00:38;96290.00;;;6.80
54746;BMP180;40640;48.130;11.356;2023-04-09T23:04:41;96284.00;;;6.40
54746;BMP180;40640;48.130;11.356;2023-04-09T23:08:44;96267.00;;;6.30
54746;BMP180;40640;48.130;11.356;2023-04-09T23:12:48;96271.00;;;6.20
54746;BMP180;40640;48.130;11.356;2023-04-09T23:16:51;96273.00;;;5.90